D/T METAR WX W/DIR W/SPE G/SPE TEMP DEWP
20/06/19 16:20 EGAE 201520Z 30012KT 260V320 9999 FEW017 SCT031 16/09 Q1010 WNW (300°) 13.8mph 16°C 9°C
20/06/19 15:50 EGAE 201450Z 29013KT 9999 FEW017 SCT031 13/08 Q1010 WNW (290°) 15.0mph 13°C 8°C
20/06/19 15:20 EGAE 201420Z 27015KT 240V300 9999 VCSH FEW017 SCT032 14/08 Q1010 VCSH W (270°) 17.3mph 14°C 8°C
20/06/19 14:20 EGAE 201320Z 27010KT 220V320 9999 VCSH SCT021 SCT035 14/09 Q1010 VCSH W (270°) 11.5mph 14°C 9°C
20/06/19 13:50 EGAE 201250Z 26011KT 220V280 9999 -SHRA SCT018 SCT043 14/09 Q1010 -SHRA W (260°) 12.7mph 14°C 9°C
20/06/19 13:20 EGAE 201220Z 27012KT 9999 VCSH FEW018 SCT022 BKN035 12/09 Q1010 VCSH W (270°) 13.8mph 12°C 9°C
20/06/19 12:50 EGAE 201150Z 28011KT 9999 VCSH FEW018 SCT025 BKN043 13/07 Q1009 VCSH W (280°) 12.7mph 13°C 7°C
20/06/19 12:20 EGAE 201120Z 29011KT 260V320 9999 VCSH FEW018 SCT025 13/07 Q1009 VCSH WNW (290°) 12.7mph 13°C 7°C
20/06/19 11:20 EGAE 201020Z 26012KT 230V290 9999 VCSH FEW018 BKN031 15/09 Q1009 VCSH W (260°) 13.8mph 15°C 9°C
20/06/19 10:50 EGAE 200950Z 27014KT 9999 VCSH FEW018 SCT021 14/09 Q1008 VCSH W (270°) 16.1mph 14°C 9°C
20/06/19 09:50 EGAE 200850Z 25011KT 9999 VCSH FEW018 BKN048 12/09 Q1008 VCSH WSW (250°) 12.7mph 12°C 9°C
20/06/19 09:20 EGAE 200820Z 25012KT 9999 VCSH FEW018 BKN037 12/09 Q1008 VCSH WSW (250°) 13.8mph 12°C 9°C
20/06/19 08:50 EGAE 200750Z 25010KT 9999 VCSH FEW015 BKN040 11/09 Q1008 VCSH WSW (250°) 11.5mph 11°C 9°C
20/06/19 07:20 EGAE 200620Z 23010KT 9999 FEW008 SCT044 11/08 Q1007 SW (230°) 11.5mph 11°C 8°C
20/06/19 06:50 EGAE 200550Z 24012KT 9999 FEW012 10/08 Q1007 WSW (240°) 13.8mph 10°C 8°C
19/06/19 21:50 EGAE 192050Z 23007KT 9000 VCSH FEW009 SCT025 11/10 Q1006 VCSH SW (230°) 8.1mph 11°C 10°C
19/06/19 21:20 EGAE 192020Z 24008KT 9999 -SHRA FEW008 SCT025 11/10 Q1006 -SHRA WSW (240°) 9.2mph 11°C 10°C
19/06/19 20:20 EGAE 191920Z 23007KT 9000 -SHRA SCT012 BKN030 13/11 Q1006 -SHRA SW (230°) 8.1mph 13°C 11°C
19/06/19 19:50 EGAE 191850Z 25011KT 9000 -SHRA FEW014 BKN030 12/10 Q1006 -SHRA WSW (250°) 12.7mph 12°C 10°C
19/06/19 19:20 EGAE 191820Z 25010KT 9999 -SHRA FEW014 BKN030 13/10 Q1006 -SHRA WSW (250°) 11.5mph 13°C 10°C
19/06/19 18:50 EGAE 191750Z 26011KT 9999 -SHRA FEW016 SCT030 13/10 Q1006 RESHRA -SHRA W (260°) 12.7mph 13°C 10°C
19/06/19 18:20 EGAE 191720Z 26010KT 9000 VCSH FEW014 SCT024 13/11 Q1006 RESHRA VCSH W (260°) 11.5mph 13°C 11°C
19/06/19 17:20 EGAE 191620Z 23008KT 9999 VCSH FEW018 SCT028 BKN041 14/12 Q1006 VCSH SW (230°) 9.2mph 14°C 12°C
19/06/19 16:50 EGAE 191550Z 24009KT 9999 VCSH FEW016 SCT028 BKN044 14/11 Q1006 VCSH WSW (240°) 10.4mph 14°C 11°C
19/06/19 16:20 EGAE 191520Z 25011KT 9000 -SHRA FEW016 SCT022 BKN037 15/11 Q1006 -SHRA WSW (250°) 12.7mph 15°C 11°C
19/06/19 15:50 EGAE 191450Z 26012KT 9000 VCSH FEW016 BKN027 16/11 Q1006 VCSH W (260°) 13.8mph 16°C 11°C
19/06/19 15:20 EGAE 191420Z 23015KT 9999 VCSH FEW016 BKN033 16/10 Q1006 VCSH SW (230°) 17.3mph 16°C 10°C
19/06/19 14:50 EGAE 191350Z 23014KT 9999 VCSH FEW016 BKN035 16/11 Q1006 VCSH SW (230°) 16.1mph 16°C 11°C
19/06/19 14:20 EGAE 191320Z 24015KT 9999 VCSH SCT018 BKN037 16/10 Q1006 VCSH WSW (240°) 17.3mph 16°C 10°C
19/06/19 13:50 EGAE 191250Z 25016KT 9999 FEW018 BKN037 16/09 Q1006 WSW (250°) 18.4mph 16°C 9°C
19/06/19 13:20 EGAE 191220Z 24016KT 9999 VCSH FEW015 BKN035 16/10 Q1006 VCSH WSW (240°) 18.4mph 16°C 10°C
19/06/19 12:50 EGAE 191150Z 24016KT 9999 VCSH FEW017 SCT041 17/10 Q1006 VCSH WSW (240°) 18.4mph 17°C 10°C
19/06/19 12:20 EGAE 191120Z 24015KT 9999 VCSH FEW017 SCT041 16/10 Q1006 VCSH WSW (240°) 17.3mph 16°C 10°C
19/06/19 11:50 EGAE 191050Z 23015KT 9999 VCSH FEW017 SCT022 16/11 Q1006 VCSH SW (230°) 17.3mph 16°C 11°C
19/06/19 11:20 EGAE 191020Z 23013KT 9999 VCSH FEW015 SCT023 BKN048 15/11 Q1006 VCSH SW (230°) 15.0mph 15°C 11°C
19/06/19 10:50 EGAE 190950Z 23011KT 9999 VCSH SCT015 SCT030 14/12 Q1007 VCSH SW (230°) 12.7mph 14°C 12°C
19/06/19 10:20 EGAE 190920Z 22010KT 9999 7000SW VCSH SCT012 SCT030 13/11 Q1007 VCSH SW (220°) 11.5mph 13°C 11°C
19/06/19 09:50 EGAE 190850Z 24011KT 9999 VCSH FEW009 SCT018 BKN030 13/11 Q1007 VCSH WSW (240°) 12.7mph 13°C 11°C
19/06/19 09:20 EGAE 190820Z 22012KT 9999 VCSH FEW009 SCT016 BKN033 14/10 Q1007 VCSH SW (220°) 13.8mph 14°C 10°C
19/06/19 08:50 EGAE 190750Z 21011KT 9999 VCSH SCT015 SCT031 13/10 Q1007 VCSH SSW (210°) 12.7mph 13°C 10°C
19/06/19 08:20 EGAE 190720Z 22011KT 9999 VCSH SCT015 SCT031 13/10 Q1007 VCSH SW (220°) 12.7mph 13°C 10°C
19/06/19 07:50 EGAE 190650Z 21010KT 9999 FEW010 SCT031 13/10 Q1007 SSW (210°) 11.5mph 13°C 10°C
19/06/19 07:20 EGAE 190620Z 22010KT 9999 FEW010 SCT049 12/09 Q1007 SW (220°) 11.5mph 12°C 9°C
19/06/19 06:50 EGAE 190550Z 21010KT 9999 FEW010 SCT049 12/09 Q1007 SSW (210°) 11.5mph 12°C 9°C
19/06/19 06:20 EGAE 190520Z 23009KT 9999 FEW012 BKN049 12/09 Q1007 SW (230°) 10.4mph 12°C 9°C
19/06/19 05:50 EGAE 190450Z 21007KT 9999 FEW012 BKN049 12/09 Q1007 SSW (210°) 8.1mph 12°C 9°C
18/06/19 20:50 EGAE 181950Z 23007KT 9999 FEW018 15/10 Q1010 SW (230°) 8.1mph 15°C 10°C
18/06/19 19:50 EGAE 181850Z 26006KT 240V300 9999 FEW016 SCT028 15/11 Q1010 W (260°) 6.9mph 15°C 11°C